Strona główna
METAR-TAF:

METAR-TAF

Lotnisko :

Port lotniczy Minneapolis-St. Paul

Minneapolis, Minnesota, Stany Zjednoczone

Szerokość geograficzna: 44-52-59N, Długość geograficzna: 093-13-44W, wysokość: 256 m

Aktualna obserwacja pogody

Raport powstał 57 minut temu, godzina 23:53 UTC
Wiatr 5 kt od wschód
Temperatura 26°C
Wilgotność 42%
Ciśnienie 1019 hPa
Widzialność: 16.1 km
Mało chmury na wysokości 5500 ft

METAR: KMSP 172353Z 09005KT 10SM FEW055 26/12 A3010 RMK AO2 SLP188 T02560117 10272 20250 56005

czas: 19:50 (00:50 UTC)

Prognoza

Raport powstał 1 godzina i 30 minut temu, godzina 23:20 UTC
Prognoza ważna od 18 godzina 00 UTC do 19 godzina 06 UTC
Wiatr 3 kt z kierunków zmiennych
Widzialność: 10 km
Mało chmury na wysokości 6000 ft
Od 18 godzina 0200 UTC
Wiatr 2 kt z kierunków zmiennych
Widzialność: 10 km
bezchmurnie
Od 18 godzina 1500 UTC
Wiatr 8 kt od południowy wschód
Widzialność: 10 km
Rozproszone chmury na wysokości 5000 ft

TAF: KMSP 172320Z 1800/1906 VRB03KT P6SM FEW060 FM180200 VRB02KT P6SM SKC FM181500 14008KT P6SM SCT050

Obserwacja i prognoza pogody dla ponad 4000 lotnisk (raport METAR i TAF).

Dostępne stacje oznaczono żółtymi i czerwonymi punktami na mapie.

Najedź kursorem aby zobaczyć nazwę stacji.

Kliknij aby zobaczyć obserwacje i prognozy pogody.

Aby zmienić mapę: kliknij na zielony przycisk z czarnym krzyżykiem, aby powiększyć; na zielony przycisk z myślnikiem, aby pomniejszyć; na zielone strzałki, aby przejść do map sąsiednich.


METAR-TAF: